Terminal Aerodrome Forecast
Issued by NWS Billings, MT

Home | Current Version | Previous Version | Text Only | Print | Product List | Glossary Off
Versions: 1 2 3 4 5 6 7 8 9 10 11 12 13 14 15 16 17 18 19 20 21 22 23 24 25 26 27 28 29 30 31 32 33 34 35 36 37 38 39 40 41 42 43

000
FTUS45 KBYZ 231505 AAC
TAFMLS
TAF AMD
KMLS 231505Z 2315/2412 VRB06KT 6SM -RA BKN015 OVC025
      TEMPO 2315/2317 1SM RA BR BKN005 OVC006
     FM231900 05015KT P6SM -RA BKN010 OVC020
     FM240300 33020KT P6SM -SHRA BKN020 OVC050=

USA.gov is the U.S. government's official web portal to all federal, state and local government web resources and services.